TimeEST,TemperatureF,Dew PointF,Humidity,Sea Level PressureIn,VisibilityMPH,Wind Direction,Wind SpeedMPH,Gust SpeedMPH,PrecipitationIn,Events,Conditions,WindDirDegrees,DateUTC
1:53 AM,35.1,14.0,42,30.11,10.0,WNW,4.6,-,N/A,,Mostly Cloudy,300,2013-02-21 06:53:00
2:53 AM,36.0,16.0,44,30.11,10.0,NW,4.6,-,N/A,,Overcast,320,2013-02-21 07:53:00
3:53 AM,35.1,15.1,44,30.11,10.0,North,6.9,-,N/A,,Mostly Cloudy,360,2013-02-21 08:53:00
5:53 AM,36.0,12.0,37,30.14,10.0,ENE,4.6,-,N/A,,Clear,60,2013-02-21 10:53:00
6:53 AM,35.1,10.9,37,30.16,10.0,ENE,4.6,-,N/A,,Clear,60,2013-02-21 11:53:00
7:53 AM,37.0,10.9,34,30.18,10.0,East,9.2,-,N/A,,Clear,90,2013-02-21 12:53:00
8:53 AM,39.9,10.9,31,30.20,10.0,East,11.5,-,N/A,,Clear,80,2013-02-21 13:53:00
9:53 AM,44.1,10.9,26,30.20,10.0,East,11.5,-,N/A,,Clear,100,2013-02-21 14:53:00
10:53 AM,48.0,12.9,24,30.19,10.0,ESE,6.9,-,N/A,,Clear,120,2013-02-21 15:53:00
11:53 AM,51.1,12.9,22,30.17,10.0,NE,6.9,-,N/A,,Clear,50,2013-02-21 16:53:00
12:53 PM,54.0,16.0,22,30.12,10.0,East,9.2,-,N/A,,Clear,90,2013-02-21 17:53:00
1:53 PM,55.9,17.1,22,30.09,10.0,East,8.1,-,N/A,,Clear,80,2013-02-21 18:53:00
2:53 PM,60.1,17.1,19,30.07,10.0,Variable,5.8,-,N/A,,Clear,0,2013-02-21 19:53:00
3:53 PM,60.1,18.0,20,30.06,10.0,Variable,4.6,-,N/A,,Clear,0,2013-02-21 20:53:00
4:53 PM,59.0,19.9,22,30.03,10.0,ESE,8.1,-,N/A,,Clear,110,2013-02-21 21:53:00
5:53 PM,57.0,21.0,25,30.04,10.0,East,8.1,-,N/A,,Clear,100,2013-02-21 22:53:00
6:53 PM,55.9,21.0,26,30.04,10.0,East,6.9,-,N/A,,Partly Cloudy,100,2013-02-21 23:53:00
7:53 PM,54.0,27.0,35,30.06,10.0,ENE,6.9,-,0.00,Rain,Light Rain,70,2013-02-22 00:53:00
8:53 PM,53.1,25.0,34,30.09,10.0,ENE,8.1,-,0.00,Rain,Light Rain,60,2013-02-22 01:53:00
9:53 PM,51.1,28.9,43,30.09,10.0,ENE,8.1,-,0.00,Rain,Light Rain,60,2013-02-22 02:53:00
10:53 PM,50.0,28.0,43,30.11,10.0,ENE,10.4,-,0.00,,Overcast,70,2013-02-22 03:53:00
11:51 PM,46.4,35.6,66,30.16,9.0,North,8.1,-,0.02,Rain-Thunderstorm,Light Rain,360,2013-02-22 04:51:00
11:53 PM,46.0,36.0,68,30.13,7.0,NNE,10.4,-,0.03,Rain-Thunderstorm,Rain,20,2013-02-22 04:53:00